Ider, Alabama
Current Conditions -  °F | °C
As of 12:15 PM on Friday 19 Dec 2014 (Local Time) from K4A9 Reporting Station
Clear Clear  
Wind Chill: 42°   Ceiling: Unl
Heat Index: 45°   Visibility: 10mi
Dew Point: 30°   Wind: 5mph
Humidity: 57%   Direction: 50°NE
Pressure: 30.15"   Gusts: NA
Location:  34.71°N, 85.68°W
Report Text: K4A9 191815Z AUTO 05004KT 10SM CLR 07/M01 A3015 RMK AO2
Loading
Personal Weather Stations






























Interactive Weather Map New forecast layout! Learn more

10-Day Weather Forecast

Advertisements
Track Severe Weather on mobile